Hanalei, Hawaii
Current Conditions -  °F | °C
As of 7:53 AM on Thursday 29 Jan 2015 (Local Time) from PHLI Reporting Station
Few Clouds Few Clouds  
Wind Chill: 19°   Ceiling: Unl
Heat Index: 19°   Visibility: 10mi
Dew Point: 17°   Wind: 3mph
Humidity: 84%   Direction: 190°S
Pressure: 29.93"   Gusts: NA
Location:  22.2°N, 159.49°W
Report Text: PHLI 291753Z 19003KT 10SM FEW055 19/17 A2993 RMK AO2 RAB09E26 SLP133 P0000 60000 T01940167 10200 20183 50012
Loading
Personal Weather Stations






























Interactive Weather Map New forecast layout! Learn more

10-Day Weather Forecast

Advertisements
Track Severe Weather on mobile